createdAt,value
2024-04-04T00:00:41.527Z,990.29
2024-04-04T00:01:41.495Z,990.24
2024-04-04T00:02:41.483Z,990.30
2024-04-04T00:03:41.469Z,990.28
2024-04-04T00:04:41.455Z,990.29
2024-04-04T00:05:41.441Z,990.22
2024-04-04T00:06:41.433Z,990.25
2024-04-04T00:07:41.415Z,990.27
2024-04-04T00:08:41.412Z,990.26
2024-04-04T00:09:41.392Z,990.28
2024-04-04T00:10:41.474Z,990.31
2024-04-04T00:11:41.375Z,990.32
2024-04-04T00:12:41.356Z,990.20
2024-04-04T00:13:41.340Z,990.25
2024-04-04T00:14:41.330Z,990.24
2024-04-04T00:15:41.322Z,990.29
2024-04-04T00:16:41.302Z,990.27
2024-04-04T00:17:41.288Z,990.31
2024-04-04T00:18:41.279Z,990.29
2024-04-04T00:19:41.261Z,990.25
2024-04-04T00:20:41.251Z,990.27
2024-04-04T00:21:41.242Z,990.29
2024-04-04T00:22:41.226Z,990.23
2024-04-04T00:23:41.213Z,990.22
2024-04-04T00:24:41.199Z,990.18
2024-04-04T00:25:41.187Z,990.30
2024-04-04T00:26:41.188Z,990.28
2024-04-04T00:27:41.158Z,990.23
2024-04-04T00:28:41.147Z,990.31
2024-04-04T00:29:41.134Z,990.27
2024-04-04T00:30:41.122Z,990.30
2024-04-04T00:31:41.109Z,990.28
2024-04-04T00:32:41.096Z,990.29
2024-04-04T00:33:41.083Z,990.29
2024-04-04T00:34:41.071Z,990.29
2024-04-04T00:35:41.053Z,990.28
2024-04-04T00:36:41.043Z,990.29
2024-04-04T00:37:41.032Z,990.27
2024-04-04T00:38:41.019Z,990.32
2024-04-04T00:39:41.005Z,990.33
2024-04-04T00:40:40.994Z,990.30
2024-04-04T00:41:40.979Z,990.26
2024-04-04T00:42:40.997Z,990.24
2024-04-04T00:43:40.957Z,990.29
2024-04-04T00:44:40.944Z,990.27
2024-04-04T00:45:40.931Z,990.25
2024-04-04T00:46:40.918Z,990.21
2024-04-04T00:47:40.912Z,990.27
2024-04-04T00:48:40.896Z,990.20
2024-04-04T00:49:40.880Z,990.21
2024-04-04T00:50:40.869Z,990.20
2024-04-04T00:51:40.860Z,990.27
2024-04-04T00:52:40.845Z,990.23
2024-04-04T00:53:40.830Z,990.14
2024-04-04T00:54:40.821Z,990.18
2024-04-04T00:55:40.803Z,990.15
2024-04-04T00:56:40.793Z,990.12
2024-04-04T00:57:40.782Z,990.13
2024-04-04T00:58:40.780Z,990.13
2024-04-04T00:59:40.749Z,990.12
2024-04-04T01:00:40.772Z,990.14
2024-04-04T01:01:40.731Z,990.09
2024-04-04T01:02:40.718Z,990.14
2024-04-04T01:03:40.705Z,990.07
2024-04-04T01:04:40.693Z,990.07
2024-04-04T01:05:40.680Z,990.03
2024-04-04T01:06:40.669Z,990.01
2024-04-04T01:07:40.675Z,990.03
2024-04-04T01:08:40.643Z,989.99
2024-04-04T01:09:40.627Z,990.01
2024-04-04T01:10:40.621Z,990.00
2024-04-04T01:11:40.617Z,989.98
2024-04-04T01:12:40.592Z,989.95
2024-04-04T01:13:40.581Z,989.92
2024-04-04T01:14:40.586Z,989.89
2024-04-04T01:15:40.555Z,989.81
2024-04-04T01:16:40.545Z,989.81
2024-04-04T01:17:40.534Z,989.80
2024-04-04T01:18:40.520Z,989.83
2024-04-04T01:19:40.516Z,989.77
2024-04-04T01:20:40.491Z,989.75
2024-04-04T01:21:40.482Z,989.77
2024-04-04T01:22:40.506Z,989.74
2024-04-04T01:23:40.469Z,989.80
2024-04-04T01:24:40.447Z,989.76
2024-04-04T01:25:40.430Z,989.73
2024-04-04T01:26:40.426Z,989.78
2024-04-04T01:27:40.429Z,989.75
2024-04-04T01:28:40.392Z,989.76
2024-04-04T01:29:40.379Z,989.73
2024-04-04T01:30:40.386Z,989.75
2024-04-04T01:31:40.368Z,989.77
2024-04-04T01:32:40.344Z,989.80
2024-04-04T01:33:40.330Z,989.74
2024-04-04T01:34:40.318Z,989.72
2024-04-04T01:35:40.307Z,989.73
2024-04-04T01:36:40.293Z,989.65
2024-04-04T01:37:40.292Z,989.72
2024-04-04T01:38:40.270Z,989.73
2024-04-04T01:39:40.257Z,989.67
2024-04-04T01:40:40.245Z,989.72
2024-04-04T01:41:40.238Z,989.67
2024-04-04T01:42:40.236Z,989.59
2024-04-04T01:43:40.205Z,989.59
2024-04-04T01:44:40.197Z,989.59
2024-04-04T01:45:40.180Z,989.56
2024-04-04T01:46:40.176Z,989.58
2024-04-04T01:47:40.158Z,989.58
2024-04-04T01:48:40.150Z,989.55
2024-04-04T01:49:40.131Z,989.56
2024-04-04T01:50:40.117Z,989.53
2024-04-04T01:51:40.105Z,989.53
2024-04-04T01:52:40.103Z,989.52
2024-04-04T01:53:40.082Z,989.50
2024-04-04T01:54:40.069Z,989.50
2024-04-04T01:55:40.065Z,989.51
2024-04-04T01:56:40.042Z,989.50
2024-04-04T01:57:40.027Z,989.45
2024-04-04T01:58:40.017Z,989.48
2024-04-04T01:59:40.004Z,989.47
2024-04-04T02:00:40.811Z,989.49
2024-04-04T02:01:39.979Z,989.47
2024-04-04T02:02:39.977Z,989.53
2024-04-04T02:04:39.939Z,989.51
2024-04-04T02:05:39.918Z,989.45
2024-04-04T02:06:39.922Z,989.43
2024-04-04T02:07:39.902Z,989.34
2024-04-04T02:08:39.904Z,989.39
2024-04-04T02:09:39.871Z,989.37
2024-04-04T02:10:39.863Z,989.39
2024-04-04T02:11:39.838Z,989.38
2024-04-04T02:12:39.831Z,989.37
2024-04-04T02:13:39.832Z,989.38
2024-04-04T02:14:39.806Z,989.31
2024-04-04T02:15:39.789Z,989.30
2024-04-04T02:16:39.778Z,989.32
2024-04-04T02:17:39.762Z,989.37
2024-04-04T02:18:39.765Z,989.35
2024-04-04T02:19:39.752Z,989.31
2024-04-04T02:20:39.722Z,989.26
2024-04-04T02:21:39.710Z,989.25
2024-04-04T02:22:39.702Z,989.21
2024-04-04T02:23:39.685Z,989.28
2024-04-04T02:24:39.669Z,989.21
2024-04-04T02:25:39.668Z,989.15
2024-04-04T02:26:39.641Z,989.05
2024-04-04T02:27:39.630Z,989.05
2024-04-04T02:28:39.616Z,989.05
2024-04-04T02:29:39.604Z,989.01
2024-04-04T02:30:39.587Z,989.05
2024-04-04T02:31:39.571Z,989.02
2024-04-04T02:32:39.593Z,989.05
2024-04-04T02:33:39.547Z,989.07
2024-04-04T02:34:39.568Z,989.04
2024-04-04T02:35:39.525Z,989.01
2024-04-04T02:36:39.514Z,989.03
2024-04-04T02:37:39.495Z,989.00
2024-04-04T02:38:39.482Z,988.97
2024-04-04T02:39:39.494Z,988.99
2024-04-04T02:40:39.456Z,988.95
2024-04-04T02:41:39.464Z,988.94
2024-04-04T02:42:39.430Z,988.99
2024-04-04T02:43:39.414Z,988.97
2024-04-04T02:44:39.405Z,988.98
2024-04-04T02:45:39.389Z,988.96
2024-04-04T02:46:39.379Z,988.92
2024-04-04T02:47:39.360Z,988.92
2024-04-04T02:48:39.368Z,988.93
2024-04-04T02:49:39.338Z,988.92
2024-04-04T02:50:39.347Z,988.93
2024-04-04T02:51:39.310Z,988.90
2024-04-04T02:52:39.299Z,988.88
2024-04-04T02:53:39.283Z,988.88
2024-04-04T02:54:39.276Z,988.90
2024-04-04T02:55:39.258Z,988.82
2024-04-04T02:56:39.246Z,988.83
2024-04-04T02:57:39.227Z,988.90
2024-04-04T02:58:39.214Z,988.87
2024-04-04T02:59:39.204Z,988.88
2024-04-04T03:00:39.189Z,988.91
2024-04-04T03:01:39.181Z,988.86
2024-04-04T03:02:39.158Z,988.81
2024-04-04T03:03:39.148Z,988.81
2024-04-04T03:04:39.134Z,988.77
2024-04-04T03:05:39.125Z,988.85
2024-04-04T03:06:39.125Z,988.85
2024-04-04T03:07:39.098Z,988.83
2024-04-04T03:08:39.090Z,988.84
2024-04-04T03:09:39.071Z,988.82
2024-04-04T03:10:39.050Z,988.80
2024-04-04T03:11:39.044Z,988.80
2024-04-04T03:12:39.032Z,988.82
2024-04-04T03:13:39.018Z,988.84
2024-04-04T03:14:39.002Z,988.78
2024-04-04T03:15:38.996Z,988.75
2024-04-04T03:16:38.974Z,988.74
2024-04-04T03:17:38.959Z,988.78
2024-04-04T03:18:38.947Z,988.75
2024-04-04T03:19:38.936Z,988.73
2024-04-04T03:20:38.925Z,988.67
2024-04-04T03:21:38.911Z,988.65
2024-04-04T03:22:38.907Z,988.69
2024-04-04T03:23:38.882Z,988.68
2024-04-04T03:24:38.874Z,988.69
2024-04-04T03:25:38.856Z,988.68
2024-04-04T03:26:38.844Z,988.66
2024-04-04T03:27:38.828Z,988.63
2024-04-04T03:28:38.813Z,988.66
2024-04-04T03:29:38.808Z,988.66
2024-04-04T03:30:38.788Z,988.66
2024-04-04T03:31:38.776Z,988.59
2024-04-04T03:32:38.762Z,988.64
2024-04-04T03:33:38.752Z,988.59
2024-04-04T03:34:38.738Z,988.53
2024-04-04T03:35:38.724Z,988.51
2024-04-04T03:36:38.709Z,988.53
2024-04-04T03:37:38.697Z,988.53
2024-04-04T03:38:38.704Z,988.53
2024-04-04T03:39:38.669Z,988.50
2024-04-04T03:40:38.654Z,988.52
2024-04-04T03:41:38.641Z,988.47
2024-04-04T03:42:38.640Z,988.41
2024-04-04T03:43:38.617Z,988.39
2024-04-04T03:44:38.598Z,988.43
2024-04-04T03:45:38.592Z,988.39
2024-04-04T03:46:38.580Z,988.38
2024-04-04T03:47:38.564Z,988.42
2024-04-04T03:48:38.547Z,988.41
2024-04-04T03:49:38.536Z,988.38
2024-04-04T03:50:38.526Z,988.35
2024-04-04T03:51:38.512Z,988.28
2024-04-04T03:52:38.497Z,988.28
2024-04-04T03:53:38.484Z,988.24
2024-04-04T03:54:38.480Z,988.20
2024-04-04T03:55:38.460Z,988.21
2024-04-04T03:56:39.290Z,988.24
2024-04-04T03:57:38.444Z,988.25
2024-04-04T03:58:38.456Z,988.25
2024-04-04T03:59:38.428Z,988.26
2024-04-04T04:00:38.425Z,988.19
2024-04-04T04:01:38.395Z,988.16
2024-04-04T04:02:38.373Z,988.16
2024-04-04T04:03:38.363Z,988.13
2024-04-04T04:04:38.366Z,988.11
2024-04-04T04:05:38.328Z,988.04
2024-04-04T04:06:38.311Z,988.05
2024-04-04T04:07:38.297Z,988.10
2024-04-04T04:08:38.282Z,988.09
2024-04-04T04:09:38.273Z,988.01
2024-04-04T04:10:38.266Z,988.06
2024-04-04T04:11:38.240Z,988.08
2024-04-04T04:12:38.228Z,988.05
2024-04-04T04:13:38.231Z,988.02
2024-04-04T04:14:38.202Z,988.02
2024-04-04T04:15:38.193Z,988.03
2024-04-04T04:16:38.178Z,988.03
2024-04-04T04:17:38.166Z,988.02
2024-04-04T04:18:38.154Z,987.98
2024-04-04T04:19:38.138Z,987.94
2024-04-04T04:20:38.135Z,987.98
2024-04-04T04:21:38.114Z,987.91
2024-04-04T04:22:38.099Z,987.93
2024-04-04T04:23:38.093Z,987.87
2024-04-04T04:24:38.073Z,987.94
2024-04-04T04:25:38.064Z,987.97
2024-04-04T04:26:38.060Z,987.92
2024-04-04T04:27:38.036Z,987.89
2024-04-04T04:28:38.018Z,987.96
2024-04-04T04:29:38.006Z,987.97
2024-04-04T04:30:37.997Z,988.03
2024-04-04T04:31:37.982Z,988.01
2024-04-04T04:32:37.970Z,987.99
2024-04-04T04:33:37.961Z,988.04
2024-04-04T04:34:37.944Z,988.06
2024-04-04T04:35:37.933Z,988.01
2024-04-04T04:36:37.916Z,988.08
2024-04-04T04:37:37.907Z,988.07
2024-04-04T04:38:37.894Z,988.08
2024-04-04T04:39:37.892Z,988.06
2024-04-04T04:40:37.872Z,988.05
2024-04-04T04:41:37.869Z,988.17
2024-04-04T04:42:37.885Z,988.05
2024-04-04T04:43:37.830Z,988.06
2024-04-04T04:44:37.815Z,988.05
2024-04-04T04:45:37.807Z,988.04
2024-04-04T04:46:37.792Z,988.05
2024-04-04T04:47:37.789Z,988.08
2024-04-04T04:48:37.763Z,988.03
2024-04-04T04:49:37.751Z,988.07
2024-04-04T04:50:37.741Z,988.04
2024-04-04T04:51:37.728Z,987.99
2024-04-04T04:52:37.710Z,988.01
2024-04-04T04:53:37.701Z,987.99
2024-04-04T04:54:37.688Z,988.02
2024-04-04T04:55:37.675Z,987.93
2024-04-04T04:56:37.661Z,987.93
2024-04-04T04:57:37.693Z,988.01
2024-04-04T04:58:37.647Z,987.91
2024-04-04T04:59:37.628Z,987.93
2024-04-04T05:00:37.642Z,987.93
2024-04-04T05:01:37.597Z,987.91
2024-04-04T05:02:37.582Z,987.94
2024-04-04T05:03:37.566Z,987.88
2024-04-04T05:04:37.557Z,987.92
2024-04-04T05:05:37.546Z,987.93
2024-04-04T05:06:37.527Z,987.87
2024-04-04T05:07:37.542Z,987.90
2024-04-04T05:08:37.506Z,987.84
2024-04-04T05:09:37.519Z,987.82
2024-04-04T05:10:37.526Z,987.89
2024-04-04T05:11:37.470Z,987.87
2024-04-04T05:12:37.466Z,987.82
2024-04-04T05:13:37.446Z,987.86
2024-04-04T05:14:37.446Z,987.86
2024-04-04T05:15:37.417Z,987.86
2024-04-04T05:16:37.400Z,987.85
2024-04-04T05:17:37.389Z,987.86
2024-04-04T05:18:37.375Z,987.84
2024-04-04T05:19:37.365Z,987.94
2024-04-04T05:20:37.350Z,987.82
2024-04-04T05:21:37.338Z,987.90
2024-04-04T05:22:37.324Z,987.86
2024-04-04T05:23:37.321Z,987.87
2024-04-04T05:24:37.303Z,987.85
2024-04-04T05:25:37.291Z,987.82
2024-04-04T05:26:37.269Z,987.79
2024-04-04T05:27:37.261Z,987.75
2024-04-04T05:28:37.245Z,987.79
2024-04-04T05:29:37.241Z,987.77
2024-04-04T05:30:37.291Z,987.79
2024-04-04T05:31:37.208Z,987.77
2024-04-04T05:32:37.199Z,987.75
2024-04-04T05:33:37.182Z,987.77
2024-04-04T05:34:37.162Z,987.71
2024-04-04T05:35:37.162Z,987.77
2024-04-04T05:36:37.139Z,987.70
2024-04-04T05:37:37.135Z,987.63
2024-04-04T05:38:37.112Z,987.68
2024-04-04T05:39:37.104Z,987.65
2024-04-04T05:40:37.091Z,987.66
2024-04-04T05:41:37.076Z,987.70
2024-04-04T05:42:37.058Z,987.63
2024-04-04T05:43:37.049Z,987.56
2024-04-04T05:44:37.044Z,987.56
2024-04-04T05:45:37.023Z,987.53
2024-04-04T05:46:37.022Z,987.50
2024-04-04T05:47:36.996Z,987.43
2024-04-04T05:48:36.984Z,987.54
2024-04-04T05:49:36.988Z,987.47
2024-04-04T05:50:36.958Z,987.48
2024-04-04T05:51:36.944Z,987.46
2024-04-04T05:52:36.929Z,987.47
2024-04-04T05:53:36.921Z,987.52
2024-04-04T05:54:36.906Z,987.53
2024-04-04T05:55:36.907Z,987.49
2024-04-04T05:56:36.890Z,987.49
2024-04-04T05:57:36.867Z,987.45
2024-04-04T05:58:36.852Z,987.54
2024-04-04T05:59:36.843Z,987.46
2024-04-04T06:00:36.833Z,987.48
2024-04-04T06:01:36.813Z,987.44
2024-04-04T06:02:36.820Z,987.44
2024-04-04T06:03:36.788Z,987.45
2024-04-04T06:04:42.969Z,987.47
2024-04-04T06:05:38.765Z,987.50
2024-04-04T06:06:36.748Z,987.45
2024-04-04T06:07:36.737Z,987.46
2024-04-04T06:08:36.727Z,987.45
2024-04-04T06:09:36.716Z,987.41
2024-04-04T06:10:36.720Z,987.40
2024-04-04T06:11:36.694Z,987.43
2024-04-04T06:12:36.675Z,987.38
2024-04-04T06:13:36.664Z,987.38
2024-04-04T06:14:36.642Z,987.39
2024-04-04T06:15:36.638Z,987.37
2024-04-04T06:16:36.624Z,987.43
2024-04-04T06:17:36.624Z,987.41
2024-04-04T06:18:36.611Z,987.38
2024-04-04T06:19:36.584Z,987.36
2024-04-04T06:20:36.574Z,987.38
2024-04-04T06:21:36.567Z,987.36
2024-04-04T06:22:36.567Z,987.24
2024-04-04T06:23:36.530Z,987.26
2024-04-04T06:24:36.516Z,987.28
2024-04-04T06:25:36.502Z,987.28
2024-04-04T06:26:36.491Z,987.30
2024-04-04T06:27:36.477Z,987.28
2024-04-04T06:28:36.467Z,987.27
2024-04-04T06:29:36.452Z,987.28
2024-04-04T06:30:36.452Z,987.33
2024-04-04T06:31:36.428Z,987.27
2024-04-04T06:32:36.423Z,987.35
2024-04-04T06:33:36.402Z,987.32
2024-04-04T06:34:36.402Z,987.34
2024-04-04T06:35:36.377Z,987.33
2024-04-04T06:36:36.366Z,987.31
2024-04-04T06:37:36.351Z,987.29
2024-04-04T06:38:36.337Z,987.28
2024-04-04T06:39:36.328Z,987.22
2024-04-04T06:40:36.312Z,987.20
2024-04-04T06:41:36.308Z,987.27
2024-04-04T06:42:36.286Z,987.21
2024-04-04T06:43:36.278Z,987.18
2024-04-04T06:44:36.259Z,987.17
2024-04-04T06:45:36.247Z,987.20
2024-04-04T06:46:36.232Z,987.22
2024-04-04T06:47:36.222Z,987.19
2024-04-04T06:48:36.928Z,987.19
2024-04-04T06:49:36.198Z,987.16
2024-04-04T06:50:36.209Z,987.19
2024-04-04T06:51:36.172Z,987.16
2024-04-04T06:52:36.158Z,987.09
2024-04-04T06:53:36.141Z,987.16
2024-04-04T06:54:36.131Z,987.16
2024-04-04T06:55:36.129Z,987.16
2024-04-04T06:56:36.106Z,987.06
2024-04-04T06:57:36.094Z,987.04
2024-04-04T06:58:36.081Z,987.07
2024-04-04T06:59:36.070Z,987.01
2024-04-04T07:00:36.066Z,986.95
2024-04-04T07:01:36.555Z,987.05
2024-04-04T07:02:36.026Z,987.06
2024-04-04T07:03:36.015Z,987.06
2024-04-04T07:04:36.000Z,987.05
2024-04-04T07:05:35.994Z,987.08
2024-04-04T07:06:35.986Z,987.06
2024-04-04T07:07:35.965Z,987.10
2024-04-04T07:08:35.955Z,987.07
2024-04-04T07:09:35.946Z,987.05
2024-04-04T07:10:36.005Z,987.09
2024-04-04T07:11:35.928Z,987.04
2024-04-04T07:12:35.897Z,987.11
2024-04-04T07:13:35.884Z,987.05
2024-04-04T07:14:35.906Z,987.01
2024-04-04T07:15:35.954Z,987.06
2024-04-04T07:16:35.896Z,987.03
2024-04-04T07:17:35.830Z,986.99
2024-04-04T07:18:35.826Z,986.95
2024-04-04T07:19:35.903Z,986.97
2024-04-04T07:20:35.882Z,986.99
2024-04-04T07:21:35.848Z,986.95
2024-04-04T07:22:35.797Z,986.98
2024-04-04T07:23:35.805Z,986.90
2024-04-04T07:24:35.744Z,986.95
2024-04-04T07:25:35.728Z,986.94
2024-04-04T07:26:35.736Z,987.00
2024-04-04T07:27:35.718Z,986.94
2024-04-04T07:28:35.715Z,986.95
2024-04-04T07:29:35.680Z,986.91
2024-04-04T07:30:35.667Z,986.89
2024-04-04T07:31:35.656Z,986.93
2024-04-04T07:32:35.669Z,986.93
2024-04-04T07:33:35.628Z,986.98
2024-04-04T07:34:35.616Z,986.93
2024-04-04T07:35:35.601Z,986.87
2024-04-04T07:36:35.592Z,986.87
2024-04-04T07:37:35.578Z,986.83
2024-04-04T07:38:35.585Z,986.79
2024-04-04T07:39:35.554Z,986.79
2024-04-04T07:40:35.542Z,986.79
2024-04-04T07:41:35.532Z,986.82
2024-04-04T07:42:35.527Z,986.82
2024-04-04T07:43:35.502Z,986.85
2024-04-04T07:44:35.491Z,986.85
2024-04-04T07:45:35.477Z,986.85
2024-04-04T07:46:35.763Z,986.83
2024-04-04T07:47:35.456Z,986.73
2024-04-04T07:48:35.438Z,986.76
2024-04-04T07:49:35.432Z,986.85
2024-04-04T07:50:35.438Z,986.77
2024-04-04T07:51:35.401Z,986.80
2024-04-04T07:52:35.390Z,986.81
2024-04-04T07:53:35.383Z,986.82
2024-04-04T07:54:35.377Z,986.86
2024-04-04T07:55:35.361Z,986.82
2024-04-04T07:56:35.343Z,986.84
2024-04-04T07:57:35.324Z,986.76
2024-04-04T07:58:35.316Z,986.76
2024-04-04T07:59:35.301Z,986.78
2024-04-04T08:00:35.291Z,986.79
2024-04-04T08:01:35.274Z,986.82
2024-04-04T08:02:35.264Z,986.80
2024-04-04T08:03:35.273Z,986.81
2024-04-04T08:04:35.236Z,986.81
2024-04-04T08:06:35.213Z,986.78
2024-04-04T08:07:35.198Z,986.83
2024-04-04T08:08:35.189Z,986.80
2024-04-04T08:09:35.174Z,986.78
2024-04-04T08:10:35.185Z,986.85
2024-04-04T08:11:35.148Z,986.82
2024-04-04T08:12:35.138Z,986.82
2024-04-04T08:13:35.122Z,986.83
2024-04-04T08:14:35.110Z,986.79
2024-04-04T08:15:35.103Z,986.79
2024-04-04T08:16:35.085Z,986.76
2024-04-04T08:17:35.078Z,986.77
2024-04-04T08:18:35.063Z,986.71
2024-04-04T08:19:35.044Z,986.74
2024-04-04T08:20:35.035Z,986.73
2024-04-04T08:21:35.025Z,986.76
2024-04-04T08:22:35.010Z,986.81
2024-04-04T08:23:34.994Z,986.87
2024-04-04T08:24:35.000Z,986.79
2024-04-04T08:25:34.988Z,986.79
2024-04-04T08:26:34.978Z,986.77
2024-04-04T08:27:34.956Z,986.76
2024-04-04T08:28:34.931Z,986.80
2024-04-04T08:29:34.943Z,986.83
2024-04-04T08:30:34.948Z,986.80
2024-04-04T08:31:34.898Z,986.88
2024-04-04T08:32:34.933Z,986.85
2024-04-04T08:33:34.868Z,986.94
2024-04-04T08:34:34.856Z,986.92
2024-04-04T08:35:34.862Z,986.78
2024-04-04T08:36:34.831Z,986.85
2024-04-04T08:37:34.819Z,986.88
2024-04-04T08:38:34.805Z,986.81
2024-04-04T08:39:34.788Z,986.82
2024-04-04T08:40:34.777Z,986.90
2024-04-04T08:41:34.764Z,986.85
2024-04-04T08:42:34.813Z,986.89
2024-04-04T08:43:34.738Z,986.84
2024-04-04T08:44:34.729Z,986.89
2024-04-04T08:45:34.713Z,986.95
2024-04-04T08:46:34.708Z,986.84
2024-04-04T08:47:34.704Z,986.85
2024-04-04T08:48:34.676Z,986.87
2024-04-04T08:49:34.662Z,987.18
2024-04-04T08:50:44.023Z,986.90
2024-04-04T08:51:34.651Z,986.88
2024-04-04T08:52:34.626Z,986.92
2024-04-04T08:53:34.612Z,986.90
2024-04-04T08:54:34.598Z,987.06
2024-04-04T08:55:34.583Z,987.08
2024-04-04T08:56:34.573Z,987.06
2024-04-04T08:57:34.560Z,987.09
2024-04-04T08:58:34.564Z,987.09
2024-04-04T08:59:34.533Z,987.00
2024-04-04T09:00:34.557Z,987.08
2024-04-04T09:01:35.311Z,987.07
2024-04-04T09:02:34.506Z,987.08
2024-04-04T09:03:34.483Z,987.07
2024-04-04T09:04:34.471Z,987.07
2024-04-04T09:05:34.455Z,987.07
2024-04-04T09:06:34.444Z,986.95
2024-04-04T09:07:34.430Z,987.07
2024-04-04T09:08:34.422Z,987.15
2024-04-04T09:09:34.407Z,987.00
2024-04-04T09:10:34.394Z,986.77
2024-04-04T09:11:34.378Z,987.07
2024-04-04T09:12:34.363Z,987.19
2024-04-04T09:13:34.355Z,987.28
2024-04-04T09:14:34.358Z,987.16
2024-04-04T09:15:34.326Z,987.31
2024-04-04T09:16:34.318Z,987.32
2024-04-04T09:17:34.353Z,987.28
2024-04-04T09:18:34.292Z,987.39
2024-04-04T09:19:34.751Z,987.47
2024-04-04T09:20:34.263Z,987.45
2024-04-04T09:21:34.252Z,987.44
2024-04-04T09:22:34.240Z,987.34
2024-04-04T09:23:34.231Z,987.34
2024-04-04T09:24:38.908Z,987.46
2024-04-04T09:25:34.201Z,987.36
2024-04-04T09:26:34.186Z,987.44
2024-04-04T09:27:34.179Z,987.49
2024-04-04T09:28:34.167Z,987.47
2024-04-04T09:29:34.151Z,987.42
2024-04-04T09:30:34.157Z,987.43
2024-04-04T09:31:34.122Z,987.33
2024-04-04T09:32:34.112Z,987.36
2024-04-04T09:33:34.094Z,987.39
2024-04-04T09:34:34.087Z,987.42
2024-04-04T09:35:34.071Z,987.39
2024-04-04T09:36:34.071Z,987.55
2024-04-04T09:37:34.046Z,987.50
2024-04-04T09:38:34.036Z,987.38
2024-04-04T09:39:34.033Z,987.36
2024-04-04T09:40:34.010Z,987.39
2024-04-04T09:41:33.998Z,987.23
2024-04-04T09:42:33.995Z,987.34
2024-04-04T09:43:33.973Z,987.29
2024-04-04T09:44:33.970Z,987.35
2024-04-04T09:45:33.950Z,987.29
2024-04-04T09:46:33.949Z,987.38
2024-04-04T09:47:33.933Z,987.32
2024-04-04T09:48:37.096Z,987.44
2024-04-04T09:49:33.895Z,987.39
2024-04-04T09:50:33.885Z,987.47
2024-04-04T09:51:33.878Z,987.37
2024-04-04T09:52:33.860Z,987.39
2024-04-04T09:53:33.842Z,987.30
2024-04-04T09:54:33.917Z,987.35
2024-04-04T09:55:33.815Z,987.35
2024-04-04T09:56:33.804Z,987.39
2024-04-04T09:57:33.790Z,987.41
2024-04-04T09:58:33.789Z,987.43
2024-04-04T09:59:33.769Z,987.38
2024-04-04T10:00:33.760Z,987.36
2024-04-04T10:01:33.736Z,987.51
2024-04-04T10:02:33.734Z,987.52
2024-04-04T10:03:33.712Z,987.44
2024-04-04T10:04:33.703Z,987.37
2024-04-04T10:05:33.685Z,987.38
2024-04-04T10:06:33.698Z,987.32
2024-04-04T10:07:33.659Z,987.31
2024-04-04T10:08:33.650Z,987.33
2024-04-04T10:09:33.696Z,987.43
2024-04-04T10:10:33.622Z,987.42
2024-04-04T10:11:33.610Z,987.54
2024-04-04T10:12:33.600Z,987.39
2024-04-04T10:13:33.582Z,987.49
2024-04-04T10:14:33.572Z,987.59
2024-04-04T10:15:33.556Z,987.30
2024-04-04T10:16:33.552Z,987.38
2024-04-04T10:17:33.560Z,987.39
2024-04-04T10:18:33.545Z,987.39
2024-04-04T10:19:33.504Z,987.37
2024-04-04T10:20:33.493Z,987.44
2024-04-04T10:21:33.481Z,987.35
2024-04-04T10:22:33.467Z,987.45
2024-04-04T10:23:33.453Z,987.42
2024-04-04T10:24:33.443Z,987.42
2024-04-04T10:25:33.426Z,987.48
2024-04-04T10:26:33.416Z,987.46
2024-04-04T10:27:33.400Z,987.48
2024-04-04T10:28:33.390Z,987.39
2024-04-04T10:29:36.887Z,987.47
2024-04-04T10:30:33.384Z,987.39
2024-04-04T10:31:33.347Z,987.36
2024-04-04T10:32:33.355Z,987.51
2024-04-04T10:33:33.328Z,987.47
2024-04-04T10:34:33.330Z,987.61
2024-04-04T10:35:33.297Z,987.63
2024-04-04T10:36:33.285Z,987.59
2024-04-04T10:37:33.270Z,987.67
2024-04-04T10:38:33.266Z,987.64
2024-04-04T10:39:33.246Z,987.76
2024-04-04T10:40:33.237Z,987.70
2024-04-04T10:41:33.224Z,987.76
2024-04-04T10:42:33.209Z,987.82
2024-04-04T10:43:33.194Z,987.88
2024-04-04T10:44:33.183Z,987.82
2024-04-04T10:45:33.167Z,987.86
2024-04-04T10:46:33.159Z,987.84
2024-04-04T10:47:33.182Z,987.81
2024-04-04T10:48:33.132Z,987.83
2024-04-04T10:49:33.115Z,987.83
2024-04-04T10:50:33.122Z,987.82
2024-04-04T10:51:33.089Z,987.83
2024-04-04T10:52:33.085Z,987.82
2024-04-04T10:53:33.068Z,987.78
2024-04-04T10:54:33.052Z,987.79
2024-04-04T10:55:33.037Z,987.78
2024-04-04T10:56:33.027Z,987.87
2024-04-04T10:57:33.010Z,987.83
2024-04-04T10:58:33.001Z,987.81
2024-04-04T10:59:32.982Z,987.86
2024-04-04T11:00:32.979Z,987.92
2024-04-04T11:01:32.961Z,987.92
2024-04-04T11:02:32.955Z,987.96
2024-04-04T11:03:32.935Z,988.05
2024-04-04T11:04:32.927Z,987.99
2024-04-04T11:05:32.912Z,988.02
2024-04-04T11:06:32.912Z,988.02
2024-04-04T11:07:32.893Z,988.03
2024-04-04T11:08:32.874Z,988.03
2024-04-04T11:09:32.857Z,987.99
2024-04-04T11:10:32.848Z,988.01
2024-04-04T11:11:32.837Z,988.08
2024-04-04T11:12:32.823Z,988.01
2024-04-04T11:13:32.808Z,988.02
2024-04-04T11:14:32.792Z,988.03
2024-04-04T11:15:32.778Z,988.00
2024-04-04T11:16:32.767Z,988.11
2024-04-04T11:17:32.776Z,988.05
2024-04-04T11:18:32.743Z,987.98
2024-04-04T11:19:32.733Z,987.95
2024-04-04T11:20:32.716Z,987.93
2024-04-04T11:21:32.703Z,988.01
2024-04-04T11:22:32.704Z,987.98
2024-04-04T11:23:32.683Z,988.07
2024-04-04T11:24:32.665Z,988.14
2024-04-04T11:25:32.653Z,988.17
2024-04-04T11:26:32.636Z,988.15
2024-04-04T11:27:32.617Z,988.13
2024-04-04T11:28:39.863Z,988.11
2024-04-04T11:29:32.593Z,988.00
2024-04-04T11:30:32.606Z,988.09
2024-04-04T11:31:32.572Z,988.12
2024-04-04T11:32:32.616Z,988.00
2024-04-04T11:33:32.550Z,988.02
2024-04-04T11:34:32.538Z,988.01
2024-04-04T11:35:32.518Z,987.95
2024-04-04T11:36:32.516Z,988.07
2024-04-04T11:37:32.494Z,988.10
2024-04-04T11:38:32.502Z,988.14
2024-04-04T11:39:32.462Z,988.15
2024-04-04T11:40:32.452Z,988.10
2024-04-04T11:41:32.441Z,988.15
2024-04-04T11:42:32.440Z,988.12
2024-04-04T11:43:32.418Z,988.13
2024-04-04T11:44:32.427Z,988.24
2024-04-04T11:45:32.394Z,988.23
2024-04-04T11:46:32.388Z,988.30
2024-04-04T11:47:32.369Z,988.30
2024-04-04T11:48:32.347Z,988.36
2024-04-04T11:49:32.337Z,988.36
2024-04-04T11:50:32.320Z,988.36
2024-04-04T11:51:32.314Z,988.34
2024-04-04T11:52:32.295Z,988.39
2024-04-04T11:53:32.279Z,988.28
2024-04-04T11:54:32.291Z,988.35
2024-04-04T11:55:32.274Z,988.42
2024-04-04T11:56:32.245Z,988.39
2024-04-04T11:57:32.242Z,988.45
2024-04-04T11:58:32.221Z,988.48
2024-04-04T11:59:32.209Z,988.50
2024-04-04T12:00:32.195Z,988.49
2024-04-04T12:01:32.187Z,988.48
2024-04-04T12:02:32.167Z,988.40
2024-04-04T12:03:32.156Z,988.34
2024-04-04T12:04:32.143Z,988.43
2024-04-04T12:05:32.130Z,988.41
2024-04-04T12:06:32.114Z,988.49
2024-04-04T12:07:32.103Z,988.57
2024-04-04T12:08:32.087Z,988.57
2024-04-04T12:09:32.076Z,988.63
2024-04-04T12:10:32.081Z,988.65
2024-04-04T12:11:32.060Z,988.59
2024-04-04T12:12:32.038Z,988.67
2024-04-04T12:13:32.023Z,988.74
2024-04-04T12:14:32.010Z,988.72
2024-04-04T12:15:32.009Z,988.76
2024-04-04T12:16:31.988Z,988.76
2024-04-04T12:17:32.003Z,988.70
2024-04-04T12:18:31.958Z,988.72
2024-04-04T12:19:31.944Z,988.73
2024-04-04T12:20:31.935Z,988.64
2024-04-04T12:21:31.920Z,988.66
2024-04-04T12:22:31.907Z,988.61
2024-04-04T12:23:34.134Z,988.59
2024-04-04T12:24:31.888Z,988.56
2024-04-04T12:25:31.872Z,988.57
2024-04-04T12:26:31.873Z,988.51
2024-04-04T12:27:31.847Z,988.43
2024-04-04T12:28:31.830Z,988.39
2024-04-04T12:29:31.817Z,988.40
2024-04-04T12:30:31.819Z,988.43